• Join FlightAware (Why Join?)
  • Login
  • US Flag 
04:12PM EDT


 

Airport Tracker/Info


-or-


 

Live Flight TrackerFlight Track Log ✈ EJA922 ✈ 10-Jul-2013 ✈ KLGB - KSFO

Flight Track Log - Related Links

Times and Time Zones

All times are in EDT time to prevent confusion due to time zone crossing. See the EJA922 flight status page for this flight to view local times or setup timezone preferences in your user account.

Time Position Orientation Groundspeed Altitude Reporting Facility
EDT Latitude Longitude Course Direction KTS MPH feet Rate Location/Type
05:48PM 33.8333 -118.1667 300° West 191 220 1,200  Level Southern California TRACON
05:49PM 33.8503 -118.2017 300° West 213 245 2,200 2,100 Climbing Los Angeles Center
05:50PM 33.8419 -118.2892 263° West 224 258 4,900 2,460 Climbing Los Angeles Center
05:51PM 33.8319 -118.3647 261° West 230 265 7,400 2,280 Climbing Los Angeles Center
05:52PM 33.8242 -118.4481 264° West 251 289 9,700 1,800 Climbing Los Angeles Center
05:53PM 33.8156 -118.5531 264° West 318 366 11,200 2,100 Climbing Los Angeles Center
05:54PM 33.8042 -118.6967 265° West 361 415 14,100 2,700 Climbing Los Angeles Center
05:55PM 33.7972 -118.8178 266° West 364 419 16,800 2,100 Climbing Los Angeles Center
05:56PM 33.8400 -118.9353 294° West 384 442 18,500 1,620 Climbing Los Angeles Center
05:57PM 33.8881 -119.0586 295° West 404 465 20,200 1,500 Climbing Los Angeles Center
05:59PM 33.9381 -119.1839 296° West 416 479 22,000 1,320 Climbing Los Angeles Center
06:00PM 34.0022 -119.3406 296° West 440 506 23,300 1,680 Climbing Los Angeles Center
06:01PM 34.0897 -119.4800 307° West 441 507 25,500 1,320 Climbing Los Angeles Center
06:02PM 34.1892 -119.5781 321° Northwest 457 526 26,100 600 Climbing Los Angeles Center
06:03PM 34.2911 -119.6822 320° Northwest 472 543 26,800 600 Climbing Los Angeles Center
06:04PM 34.3975 -119.7881 321° Northwest 488 562 27,400 660 Climbing Los Angeles Center
06:05PM 34.5047 -119.8961 320° Northwest 497 572 28,200 960 Climbing Los Angeles Center
06:06PM 34.6303 -120.0225 320° Northwest 503 579 29,400 840 Climbing Los Angeles Center
06:07PM 34.7153 -120.1086 320° Northwest 498 573 30,000 240 Climbing Los Angeles Center
06:08PM 34.8392 -120.2356 320° Northwest 488 562 30,000  Level Los Angeles Center
06:09PM 34.9442 -120.3439 320° Northwest 490 564 30,000  Level Los Angeles Center
06:10PM 35.0292 -120.4322 320° Northwest 495 570 30,000  Level Los Angeles Center
06:11PM 35.1336 -120.5411 320° Northwest 490 564 30,000  Level Los Angeles Center
06:12PM 35.2597 -120.6711 320° Northwest 487 560 30,000  Level Los Angeles Center
06:13PM 35.3856 -120.8017 320° Northwest 489 563 30,000  Level Los Angeles Center
06:14PM 35.4897 -120.9108 320° Northwest 490 564 30,000  Level Los Angeles Center
06:15PM 35.5958 -121.0206 320° Northwest 495 570 30,000  Level Los Angeles Center
06:16PM 35.7231 -121.1550 319° Northwest 501 577 30,000  Level Oakland Center
06:17PM 35.8250 -121.2636 319° Northwest 485 558 30,000  Level Oakland Center
06:18PM 35.9239 -121.3678 320° Northwest 468 539 30,000  Level Oakland Center
06:19PM 36.0203 -121.4758 318° Northwest 467 537 30,000  Level Oakland Center
06:20PM 36.1219 -121.5817 320° Northwest 479 551 30,000 -720 Level Oakland Center
06:21PM 36.2231 -121.6847 321° Northwest 471 542 28,600 -2,100 Descending Oakland Center
06:22PM 36.3333 -121.7750 327° Northwest 470 541 25,700 -2,820 Descending Oakland Center
06:23PM 36.4431 -121.8736 324° Northwest 451 519 22,900 -2,520 Descending Oakland Center
06:24PM 36.5614 -121.9147 344° North 441 507 20,600 -1,680 Descending Oakland Center
06:26PM 36.6764 -121.9483 347° North 432 497 19,500 -1,740 Descending Oakland Center
06:26PM 36.8000 -121.9833 347° North 422 486 17,200 -2,460 Descending Northern Cal TRACON
06:27PM 36.9167 -122.0167 347° North 387 445 14,700 -2,520 Descending Northern Cal TRACON
06:28PM 37.0167 -122.0333 352° North 346 398 12,200 -2,100 Descending Northern Cal TRACON
06:29PM 37.0833 -122.0833 329° Northwest 325 374 10,500 -1,140 Descending Northern Cal TRACON
06:30PM 37.1500 -122.1500 321° Northwest 323 372 10,000 -300 Descending Northern Cal TRACON
06:31PM 37.2167 -122.2167 321° Northwest 293 337 10,000 -480 Level Northern Cal TRACON
06:33PM 37.2753 -122.2764 321° Northwest 232 267 9,000 -1,020 Descending Oakland Center
06:34PM 37.3261 -122.3161 328° Northwest 219 252 7,800 -1,200 Descending Oakland Center
06:35PM 37.3719 -122.2642 42° Northeast 224 258 6,600 -1,020 Descending Oakland Center
06:36PM 37.4072 -122.2028 54° Northeast 218 251 5,800 -1,140 Descending Oakland Center
06:36PM 37.4500 -122.1667 34° Northeast 217 250 4,600 -1,140 Descending Northern Cal TRACON
06:38PM 37.5500 -122.1833 352° North 181 208 2,800 -840 Descending Northern Cal TRACON
06:39PM 37.5667 -122.2333 293° West 158 182 2,200 -720 Descending Northern Cal TRACON
06:41PM 37.6000 -122.3167 297° West 133 153 800 -720 Descending Northern Cal TRACON
06:45PM 37.6167 -122.3667 322° Northwest  Level FlightAware Approximate
06:52PM 37.6191 -122.3752 322° Northwest  Level Estimated